createdAt,value
2018-07-30T00:00:54.677Z,22.30
2018-07-30T00:03:23.028Z,22.30
2018-07-30T00:05:51.603Z,22.30
2018-07-30T00:08:20.095Z,22.40
2018-07-30T00:10:48.645Z,22.40
2018-07-30T00:13:17.082Z,22.40
2018-07-30T00:15:45.371Z,22.50
2018-07-30T00:18:14.003Z,22.50
2018-07-30T00:20:42.592Z,22.50
2018-07-30T00:25:39.040Z,22.40
2018-07-30T00:30:35.692Z,22.40
2018-07-30T00:33:04.082Z,22.40
2018-07-30T00:35:32.531Z,22.40
2018-07-30T00:38:00.895Z,22.40
2018-07-30T00:40:29.632Z,22.40
2018-07-30T00:42:58.037Z,22.30
2018-07-30T00:47:54.734Z,22.30
2018-07-30T00:50:23.159Z,22.30
2018-07-30T00:52:51.604Z,22.20
2018-07-30T00:55:20.031Z,22.20
2018-07-30T00:57:48.449Z,22.10
2018-07-30T01:00:16.840Z,22.20
2018-07-30T01:02:45.233Z,22.10
2018-07-30T01:05:13.599Z,22.20
2018-07-30T01:07:42.517Z,22.20
2018-07-30T01:10:10.893Z,22.20
2018-07-30T01:12:39.346Z,22.20
2018-07-30T01:15:07.916Z,22.30
2018-07-30T01:17:36.280Z,22.30
2018-07-30T01:20:04.741Z,22.30
2018-07-30T01:22:33.169Z,22.40
2018-07-30T01:25:01.594Z,22.50
2018-07-30T01:27:29.929Z,22.50
2018-07-30T01:29:58.562Z,22.50
2018-07-30T01:32:27.392Z,22.60
2018-07-30T01:34:55.864Z,22.50
2018-07-30T01:37:24.319Z,22.50
2018-07-30T01:39:52.932Z,22.50
2018-07-30T01:42:21.265Z,22.40
2018-07-30T01:47:18.686Z,22.30
2018-07-30T01:49:47.038Z,22.20
2018-07-30T01:52:15.440Z,22.20
2018-07-30T01:54:43.929Z,22.20
2018-07-30T01:57:12.716Z,22.10
2018-07-30T01:59:41.214Z,22.10
2018-07-30T02:02:09.699Z,22.10
2018-07-30T02:04:38.119Z,22.00
2018-07-30T02:07:07.165Z,22.00
2018-07-30T02:09:35.664Z,22.00
2018-07-30T02:12:04.044Z,22.00
2018-07-30T02:14:32.405Z,22.00
2018-07-30T02:17:00.934Z,22.10
2018-07-30T02:19:29.367Z,22.10
2018-07-30T02:21:57.790Z,22.00
2018-07-30T02:24:26.167Z,22.10
2018-07-30T02:26:54.457Z,22.10
2018-07-30T02:29:22.886Z,22.10
2018-07-30T02:31:51.354Z,22.10
2018-07-30T02:34:19.694Z,22.10
2018-07-30T02:36:48.603Z,22.10
2018-07-30T02:39:16.946Z,22.10
2018-07-30T02:41:45.329Z,22.10
2018-07-30T02:44:13.702Z,22.10
2018-07-30T02:46:42.111Z,22.00
2018-07-30T02:49:11.258Z,22.00
2018-07-30T02:51:40.003Z,21.90
2018-07-30T02:54:08.858Z,22.00
2018-07-30T02:56:37.420Z,22.00
2018-07-30T02:59:06.215Z,22.00
2018-07-30T03:01:34.535Z,22.00
2018-07-30T03:04:02.882Z,22.00
2018-07-30T03:06:31.375Z,22.00
2018-07-30T03:09:00.010Z,22.00
2018-07-30T03:11:28.475Z,22.10
2018-07-30T03:16:24.867Z,22.10
2018-07-30T03:18:53.122Z,22.10
2018-07-30T03:21:21.672Z,22.10
2018-07-30T03:23:50.063Z,22.10
2018-07-30T03:28:46.500Z,22.10
2018-07-30T03:31:15.012Z,22.10
2018-07-30T03:33:43.334Z,22.00
2018-07-30T03:36:11.677Z,22.00
2018-07-30T03:41:08.788Z,22.00
2018-07-30T03:43:37.311Z,21.90
2018-07-30T03:46:06.063Z,21.90
2018-07-30T03:48:34.467Z,21.90
2018-07-30T03:53:30.987Z,21.80
2018-07-30T03:55:59.390Z,21.90
2018-07-30T03:58:28.794Z,21.80
2018-07-30T04:00:57.241Z,21.80
2018-07-30T04:03:25.727Z,21.80
2018-07-30T04:05:54.154Z,21.80
2018-07-30T04:08:22.566Z,21.70
2018-07-30T04:10:51.060Z,21.70
2018-07-30T04:13:20.495Z,21.70
2018-07-30T04:15:48.945Z,21.70
2018-07-30T04:18:17.497Z,21.70
2018-07-30T04:23:14.022Z,21.60
2018-07-30T04:25:42.347Z,21.60
2018-07-30T04:28:10.684Z,21.60
2018-07-30T04:30:39.479Z,21.70
2018-07-30T04:33:07.850Z,21.70
2018-07-30T04:35:36.214Z,21.80
2018-07-30T04:38:04.828Z,21.80
2018-07-30T04:40:33.181Z,21.80
2018-07-30T04:43:01.563Z,21.80
2018-07-30T04:45:30.139Z,21.80
2018-07-30T04:47:58.534Z,21.80
2018-07-30T04:50:27.162Z,21.80
2018-07-30T04:52:55.490Z,21.80
2018-07-30T04:55:23.878Z,21.90
2018-07-30T04:57:52.207Z,21.90
2018-07-30T05:00:20.606Z,21.90
2018-07-30T05:02:48.999Z,22.00
2018-07-30T05:05:17.440Z,22.00
2018-07-30T05:07:45.905Z,22.10
2018-07-30T05:10:14.395Z,22.10
2018-07-30T05:15:47.715Z,22.10
2018-07-30T05:18:30.167Z,22.20
2018-07-30T05:21:35.579Z,22.20
2018-07-30T05:24:04.151Z,22.30
2018-07-30T05:26:32.664Z,22.40
2018-07-30T05:29:01.043Z,22.50
2018-07-30T05:31:29.543Z,22.50
2018-07-30T05:33:58.104Z,22.50
2018-07-30T05:36:26.693Z,22.50
2018-07-30T05:38:55.083Z,22.50
2018-07-30T05:41:23.705Z,22.60
2018-07-30T05:43:52.654Z,22.70
2018-07-30T05:46:21.215Z,22.80
2018-07-30T05:48:49.594Z,22.80
2018-07-30T05:51:17.885Z,22.80
2018-07-30T05:53:46.395Z,22.80
2018-07-30T05:56:14.730Z,22.90
2018-07-30T05:58:43.082Z,23.10
2018-07-30T06:01:11.502Z,23.30
2018-07-30T06:03:39.992Z,23.20
2018-07-30T06:06:09.048Z,23.30
2018-07-30T06:11:05.818Z,23.20
2018-07-30T06:16:03.288Z,23.10
2018-07-30T06:18:32.304Z,23.10
2018-07-30T06:21:00.849Z,23.10
2018-07-30T06:23:29.195Z,23.00
2018-07-30T06:25:57.599Z,22.90
2018-07-30T06:28:26.022Z,22.90
2018-07-30T06:33:23.016Z,23.00
2018-07-30T06:35:51.842Z,23.10
2018-07-30T06:38:20.830Z,23.00
2018-07-30T06:40:49.159Z,23.10
2018-07-30T06:43:17.517Z,23.10
2018-07-30T06:45:45.914Z,23.00
2018-07-30T06:48:14.267Z,23.10
2018-07-30T06:50:43.594Z,23.00
2018-07-30T06:55:40.344Z,23.00
2018-07-30T07:00:36.810Z,23.10
2018-07-30T07:05:33.543Z,23.30
2018-07-30T07:08:04.260Z,23.50
2018-07-30T07:10:33.753Z,23.50
2018-07-30T07:13:02.285Z,23.60
2018-07-30T07:15:31.398Z,23.70
2018-07-30T07:17:59.676Z,24.10
2018-07-30T07:20:28.303Z,24.50
2018-07-30T07:22:56.720Z,24.50
2018-07-30T07:25:25.149Z,24.40
2018-07-30T07:27:53.611Z,24.50
2018-07-30T07:32:50.245Z,25.20
2018-07-30T07:35:18.825Z,25.70
2018-07-30T07:37:47.213Z,28.50
2018-07-30T07:40:15.571Z,31.00
2018-07-30T07:42:43.942Z,31.60
2018-07-30T07:45:12.357Z,29.90
2018-07-30T07:50:09.335Z,30.50
2018-07-30T07:52:37.660Z,28.80
2018-07-30T07:55:05.983Z,30.20
2018-07-30T07:57:34.326Z,31.20
2018-07-30T08:00:02.749Z,29.50
2018-07-30T08:02:31.235Z,29.00
2018-07-30T08:04:59.584Z,28.40
2018-07-30T08:09:56.021Z,27.00
2018-07-30T08:12:24.460Z,27.20
2018-07-30T08:14:52.914Z,27.00
2018-07-30T08:17:21.223Z,27.50
2018-07-30T08:19:49.718Z,27.10
2018-07-30T08:22:18.864Z,26.70
2018-07-30T08:24:47.205Z,26.60
2018-07-30T08:27:15.699Z,26.60
2018-07-30T08:29:44.325Z,26.40
2018-07-30T08:32:12.943Z,26.50
2018-07-30T08:34:41.333Z,26.80
2018-07-30T08:37:09.727Z,27.60
2018-07-30T08:39:39.702Z,28.00
2018-07-30T08:42:08.462Z,28.00
2018-07-30T08:44:36.879Z,28.00
2018-07-30T08:47:05.487Z,28.10
2018-07-30T08:49:34.217Z,27.70
2018-07-30T08:52:02.826Z,26.60
2018-07-30T08:54:31.212Z,26.70
2018-07-30T08:56:59.607Z,26.70
2018-07-30T08:59:28.549Z,27.10
2018-07-30T09:01:57.418Z,27.50
2018-07-30T09:04:25.941Z,28.40
2018-07-30T09:06:55.005Z,28.00
2018-07-30T09:09:23.300Z,27.70
2018-07-30T09:11:51.918Z,28.50
2018-07-30T09:14:20.583Z,28.40
2018-07-30T09:16:48.991Z,28.50
2018-07-30T09:19:17.507Z,29.00
2018-07-30T09:21:45.924Z,28.30
2018-07-30T09:24:14.327Z,28.20
2018-07-30T09:26:42.943Z,28.30
2018-07-30T09:29:11.444Z,28.50
2018-07-30T09:31:39.823Z,28.60
2018-07-30T09:34:08.843Z,28.30
2018-07-30T09:36:37.378Z,27.50
2018-07-30T09:39:08.889Z,27.40
2018-07-30T09:41:37.329Z,27.00
2018-07-30T09:44:05.797Z,27.20
2018-07-30T09:46:34.185Z,27.70
2018-07-30T09:49:02.767Z,28.30
2018-07-30T09:51:31.431Z,28.60
2018-07-30T09:53:59.931Z,28.80
2018-07-30T09:56:28.425Z,28.30
2018-07-30T09:58:56.675Z,28.40
2018-07-30T10:01:28.564Z,28.00
2018-07-30T10:03:57.763Z,27.80
2018-07-30T10:06:26.471Z,27.70
2018-07-30T10:13:51.748Z,28.60
2018-07-30T10:16:20.698Z,28.00
2018-07-30T10:18:49.600Z,27.50
2018-07-30T10:23:46.054Z,27.50
2018-07-30T10:26:14.470Z,27.90
2018-07-30T10:28:42.862Z,28.20
2018-07-30T10:31:11.521Z,28.10
2018-07-30T10:33:39.846Z,28.20
2018-07-30T10:36:08.547Z,28.00
2018-07-30T10:38:37.383Z,28.10
2018-07-30T10:41:06.150Z,28.20
2018-07-30T10:43:36.326Z,28.00
2018-07-30T10:46:04.699Z,28.30
2018-07-30T10:48:33.693Z,28.40
2018-07-30T10:51:02.071Z,28.40
2018-07-30T10:53:30.613Z,28.30
2018-07-30T10:55:59.034Z,27.90
2018-07-30T10:58:27.362Z,28.00
2018-07-30T11:00:55.918Z,28.80
2018-07-30T11:03:25.369Z,28.50
2018-07-30T11:05:53.615Z,28.40
2018-07-30T11:08:23.105Z,28.20
2018-07-30T11:10:51.413Z,28.10
2018-07-30T11:13:19.870Z,28.30
2018-07-30T11:15:48.340Z,28.50
2018-07-30T11:18:17.832Z,28.30
2018-07-30T11:20:46.357Z,28.40
2018-07-30T11:23:14.716Z,28.20
2018-07-30T11:25:43.943Z,27.90
2018-07-30T11:28:12.598Z,27.70
2018-07-30T11:30:40.966Z,28.00
2018-07-30T11:33:09.509Z,28.50
2018-07-30T11:35:38.636Z,28.40
2018-07-30T11:38:08.747Z,28.50
2018-07-30T11:40:37.139Z,28.50
2018-07-30T11:43:05.684Z,29.10
2018-07-30T11:45:33.932Z,29.50
2018-07-30T11:50:30.651Z,29.70
2018-07-30T11:52:59.474Z,29.50
2018-07-30T11:55:28.134Z,29.60
2018-07-30T11:57:57.854Z,29.60
2018-07-30T12:00:28.126Z,29.70
2018-07-30T12:03:01.046Z,29.80
2018-07-30T12:05:29.664Z,29.60
2018-07-30T12:07:58.686Z,29.90
2018-07-30T12:10:27.059Z,30.20
2018-07-30T12:12:58.297Z,30.20
2018-07-30T12:15:26.736Z,30.30
2018-07-30T12:17:55.536Z,30.20
2018-07-30T12:20:24.886Z,31.00
2018-07-30T12:22:53.327Z,30.60
2018-07-30T12:25:25.013Z,30.40
2018-07-30T12:27:53.532Z,29.80
2018-07-30T12:30:22.115Z,29.70
2018-07-30T12:32:50.934Z,29.70
2018-07-30T12:35:21.317Z,29.40
2018-07-30T12:37:54.279Z,29.80
2018-07-30T12:40:24.368Z,29.70
2018-07-30T12:42:53.124Z,30.00
2018-07-30T12:45:28.895Z,30.10
2018-07-30T12:47:59.943Z,30.20
2018-07-30T12:50:28.934Z,30.20
2018-07-30T12:52:58.595Z,29.90
2018-07-30T12:55:27.125Z,29.90
2018-07-30T13:00:25.321Z,29.90
2018-07-30T13:02:53.937Z,30.00
2018-07-30T13:05:22.233Z,30.10
2018-07-30T13:07:50.849Z,30.50
2018-07-30T13:10:19.375Z,30.80
2018-07-30T13:12:47.883Z,31.00
2018-07-30T13:15:16.157Z,30.40
2018-07-30T13:22:41.241Z,30.40
2018-07-30T13:25:09.576Z,30.30
2018-07-30T13:27:37.990Z,29.90
2018-07-30T13:30:07.360Z,29.50
2018-07-30T13:35:05.262Z,29.80
2018-07-30T13:37:33.554Z,29.40
2018-07-30T13:40:02.116Z,29.30
2018-07-30T13:42:30.371Z,29.70
2018-07-30T13:44:58.764Z,29.90
2018-07-30T13:47:27.757Z,30.00
2018-07-30T13:49:56.060Z,30.30
2018-07-30T13:52:24.439Z,30.40
2018-07-30T13:54:52.764Z,30.10
2018-07-30T13:57:21.291Z,29.90
2018-07-30T13:59:49.787Z,30.10
2018-07-30T14:02:18.124Z,29.80
2018-07-30T14:04:46.402Z,29.00
2018-07-30T14:07:14.691Z,29.30
2018-07-30T14:09:43.206Z,29.50
2018-07-30T14:12:11.627Z,29.40
2018-07-30T14:14:40.011Z,29.20
2018-07-30T14:17:08.967Z,29.00
2018-07-30T14:19:37.214Z,29.20
2018-07-30T14:22:06.082Z,29.20
2018-07-30T14:24:34.470Z,29.20
2018-07-30T14:27:02.789Z,29.10
2018-07-30T14:29:31.291Z,29.00
2018-07-30T14:31:59.690Z,28.80
2018-07-30T14:34:28.067Z,28.80
2018-07-30T14:36:56.468Z,28.70
2018-07-30T14:39:24.990Z,28.50
2018-07-30T14:41:53.438Z,28.40
2018-07-30T14:44:21.831Z,28.30
2018-07-30T14:46:50.105Z,28.10
2018-07-30T14:49:18.807Z,28.10
2018-07-30T14:51:47.151Z,28.30
2018-07-30T14:54:15.603Z,28.10
2018-07-30T14:56:43.888Z,28.10
2018-07-30T14:59:12.522Z,28.30
2018-07-30T15:01:40.987Z,28.40
2018-07-30T15:04:09.463Z,28.30
2018-07-30T15:06:37.822Z,28.10
2018-07-30T15:09:20.499Z,28.30
2018-07-30T15:11:49.235Z,28.20
2018-07-30T15:14:18.429Z,28.30
2018-07-30T15:16:46.804Z,28.30
2018-07-30T15:19:15.393Z,28.40
2018-07-30T15:21:43.659Z,28.20
2018-07-30T15:24:12.118Z,28.30
2018-07-30T15:26:40.628Z,28.40
2018-07-30T15:29:09.327Z,28.30
2018-07-30T15:31:37.706Z,28.30
2018-07-30T15:34:06.128Z,28.40
2018-07-30T15:36:34.516Z,28.50
2018-07-30T15:39:03.025Z,28.90
2018-07-30T15:41:31.386Z,28.80
